sensor_id;sensor_type;location;lat;lon;timestamp;P1;durP1;ratioP1;P2;durP2;ratioP2
66437;SDS011;54537;47.972;11.662;2023-04-03T00:01:34;23.17;;;8.98;;
66437;SDS011;54537;47.972;11.662;2023-04-03T00:04:03;20.52;;;7.88;;
66437;SDS011;54537;47.972;11.662;2023-04-03T00:06:29;20.50;;;7.88;;
66437;SDS011;54537;47.972;11.662;2023-04-03T00:08:57;20.73;;;9.13;;
66437;SDS011;54537;47.972;11.662;2023-04-03T00:11:24;19.63;;;7.63;;
66437;SDS011;54537;47.972;11.662;2023-04-03T00:13:51;19.58;;;7.57;;
66437;SDS011;54537;47.972;11.662;2023-04-03T00:16:17;19.92;;;8.38;;
66437;SDS011;54537;47.972;11.662;2023-04-03T00:18:44;19.30;;;6.97;;
66437;SDS011;54537;47.972;11.662;2023-04-03T00:21:11;20.58;;;7.80;;
66437;SDS011;54537;47.972;11.662;2023-04-03T00:23:38;19.33;;;7.75;;
66437;SDS011;54537;47.972;11.662;2023-04-03T00:26:06;20.67;;;7.57;;
66437;SDS011;54537;47.972;11.662;2023-04-03T00:28:33;18.63;;;7.45;;
66437;SDS011;54537;47.972;11.662;2023-04-03T00:30:59;16.58;;;6.47;;
66437;SDS011;54537;47.972;11.662;2023-04-03T00:33:26;16.60;;;6.57;;
66437;SDS011;54537;47.972;11.662;2023-04-03T00:35:52;17.88;;;7.43;;
66437;SDS011;54537;47.972;11.662;2023-04-03T00:38:19;17.48;;;6.63;;
66437;SDS011;54537;47.972;11.662;2023-04-03T00:40:46;20.30;;;7.10;;
66437;SDS011;54537;47.972;11.662;2023-04-03T00:43:15;19.80;;;7.38;;
66437;SDS011;54537;47.972;11.662;2023-04-03T00:45:44;16.85;;;6.63;;
66437;SDS011;54537;47.972;11.662;2023-04-03T00:48:13;14.68;;;6.38;;
66437;SDS011;54537;47.972;11.662;2023-04-03T00:50:41;13.85;;;5.75;;
66437;SDS011;54537;47.972;11.662;2023-04-03T00:53:10;13.23;;;5.50;;
66437;SDS011;54537;47.972;11.662;2023-04-03T00:55:43;15.40;;;6.20;;
66437;SDS011;54537;47.972;11.662;2023-04-03T00:58:10;12.95;;;5.15;;
66437;SDS011;54537;47.972;11.662;2023-04-03T01:00:40;12.95;;;5.60;;
66437;SDS011;54537;47.972;11.662;2023-04-03T01:03:09;13.05;;;5.63;;
66437;SDS011;54537;47.972;11.662;2023-04-03T01:05:35;12.68;;;5.70;;
66437;SDS011;54537;47.972;11.662;2023-04-03T01:08:01;12.23;;;5.50;;
66437;SDS011;54537;47.972;11.662;2023-04-03T01:10:28;12.98;;;5.53;;
66437;SDS011;54537;47.972;11.662;2023-04-03T01:12:55;13.57;;;5.43;;
66437;SDS011;54537;47.972;11.662;2023-04-03T01:15:22;13.13;;;5.63;;
66437;SDS011;54537;47.972;11.662;2023-04-03T01:17:53;15.23;;;4.80;;
66437;SDS011;54537;47.972;11.662;2023-04-03T01:23:22;11.93;;;5.18;;
66437;SDS011;54537;47.972;11.662;2023-04-03T01:25:53;12.95;;;5.38;;
66437;SDS011;54537;47.972;11.662;2023-04-03T01:28:21;10.95;;;4.85;;
66437;SDS011;54537;47.972;11.662;2023-04-03T01:30:50;13.98;;;5.43;;
66437;SDS011;54537;47.972;11.662;2023-04-03T01:33:20;12.98;;;5.28;;
66437;SDS011;54537;47.972;11.662;2023-04-03T01:35:47;12.45;;;5.28;;
66437;SDS011;54537;47.972;11.662;2023-04-03T01:38:13;14.02;;;5.00;;
66437;SDS011;54537;47.972;11.662;2023-04-03T01:40:41;13.68;;;6.15;;
66437;SDS011;54537;47.972;11.662;2023-04-03T01:43:07;13.68;;;5.63;;
66437;SDS011;54537;47.972;11.662;2023-04-03T01:45:34;11.73;;;5.53;;
66437;SDS011;54537;47.972;11.662;2023-04-03T01:48:00;12.63;;;5.03;;
66437;SDS011;54537;47.972;11.662;2023-04-03T01:50:28;11.15;;;5.63;;
66437;SDS011;54537;47.972;11.662;2023-04-03T01:52:55;11.55;;;4.65;;
66437;SDS011;54537;47.972;11.662;2023-04-03T01:55:21;12.23;;;5.22;;
66437;SDS011;54537;47.972;11.662;2023-04-03T01:57:48;14.88;;;5.93;;
66437;SDS011;54537;47.972;11.662;2023-04-03T02:00:15;13.38;;;5.65;;
66437;SDS011;54537;47.972;11.662;2023-04-03T02:02:41;14.18;;;5.32;;
66437;SDS011;54537;47.972;11.662;2023-04-03T02:05:08;13.32;;;5.47;;
66437;SDS011;54537;47.972;11.662;2023-04-03T02:07:36;12.77;;;5.22;;
66437;SDS011;54537;47.972;11.662;2023-04-03T02:10:03;12.77;;;5.13;;
66437;SDS011;54537;47.972;11.662;2023-04-03T02:12:30;11.48;;;5.18;;
66437;SDS011;54537;47.972;11.662;2023-04-03T02:14:56;14.60;;;5.93;;
66437;SDS011;54537;47.972;11.662;2023-04-03T02:17:23;12.90;;;5.53;;
66437;SDS011;54537;47.972;11.662;2023-04-03T02:19:50;12.10;;;5.22;;
66437;SDS011;54537;47.972;11.662;2023-04-03T02:22:16;13.80;;;5.53;;
66437;SDS011;54537;47.972;11.662;2023-04-03T02:24:44;13.30;;;5.63;;
66437;SDS011;54537;47.972;11.662;2023-04-03T02:27:11;12.25;;;5.68;;
66437;SDS011;54537;47.972;11.662;2023-04-03T02:29:37;13.82;;;5.75;;
66437;SDS011;54537;47.972;11.662;2023-04-03T02:32:04;13.95;;;5.45;;
66437;SDS011;54537;47.972;11.662;2023-04-03T02:34:31;14.50;;;5.55;;
66437;SDS011;54537;47.972;11.662;2023-04-03T02:36:57;10.70;;;5.00;;
66437;SDS011;54537;47.972;11.662;2023-04-03T02:39:24;13.32;;;5.47;;
66437;SDS011;54537;47.972;11.662;2023-04-03T02:41:52;13.85;;;5.95;;
66437;SDS011;54537;47.972;11.662;2023-04-03T02:44:19;15.23;;;6.15;;
66437;SDS011;54537;47.972;11.662;2023-04-03T02:46:45;16.83;;;6.05;;
66437;SDS011;54537;47.972;11.662;2023-04-03T02:49:11;10.77;;;4.88;;
66437;SDS011;54537;47.972;11.662;2023-04-03T02:51:38;14.50;;;5.68;;
66437;SDS011;54537;47.972;11.662;2023-04-03T02:54:05;14.80;;;6.15;;
66437;SDS011;54537;47.972;11.662;2023-04-03T02:56:31;11.35;;;5.28;;
66437;SDS011;54537;47.972;11.662;2023-04-03T02:58:59;13.63;;;5.93;;
66437;SDS011;54537;47.972;11.662;2023-04-03T03:01:25;14.88;;;5.82;;
66437;SDS011;54537;47.972;11.662;2023-04-03T03:03:56;13.75;;;5.95;;
66437;SDS011;54537;47.972;11.662;2023-04-03T03:06:22;14.57;;;6.20;;
66437;SDS011;54537;47.972;11.662;2023-04-03T03:08:49;13.88;;;5.65;;
66437;SDS011;54537;47.972;11.662;2023-04-03T03:11:16;14.02;;;5.82;;
66437;SDS011;54537;47.972;11.662;2023-04-03T03:13:42;15.93;;;6.25;;
66437;SDS011;54537;47.972;11.662;2023-04-03T03:16:10;13.07;;;5.63;;
66437;SDS011;54537;47.972;11.662;2023-04-03T03:18:36;13.85;;;5.78;;
66437;SDS011;54537;47.972;11.662;2023-04-03T03:21:03;13.90;;;6.15;;
66437;SDS011;54537;47.972;11.662;2023-04-03T03:23:30;15.63;;;6.00;;
66437;SDS011;54537;47.972;11.662;2023-04-03T03:25:58;15.07;;;5.55;;
66437;SDS011;54537;47.972;11.662;2023-04-03T03:28:26;13.75;;;5.63;;
66437;SDS011;54537;47.972;11.662;2023-04-03T03:30:53;15.77;;;6.05;;
66437;SDS011;54537;47.972;11.662;2023-04-03T03:33:20;17.63;;;6.30;;
66437;SDS011;54537;47.972;11.662;2023-04-03T03:35:47;13.95;;;5.93;;
66437;SDS011;54537;47.972;11.662;2023-04-03T03:38:13;14.60;;;6.30;;
66437;SDS011;54537;47.972;11.662;2023-04-03T03:40:40;14.80;;;6.13;;
66437;SDS011;54537;47.972;11.662;2023-04-03T03:43:06;17.67;;;6.20;;
66437;SDS011;54537;47.972;11.662;2023-04-03T03:45:33;19.17;;;6.15;;
66437;SDS011;54537;47.972;11.662;2023-04-03T03:48:00;13.10;;;6.03;;
66437;SDS011;54537;47.972;11.662;2023-04-03T03:50:28;14.68;;;6.25;;
66437;SDS011;54537;47.972;11.662;2023-04-03T03:52:54;17.85;;;6.70;;
66437;SDS011;54537;47.972;11.662;2023-04-03T03:55:21;15.10;;;6.10;;
66437;SDS011;54537;47.972;11.662;2023-04-03T03:57:47;17.15;;;6.63;;
66437;SDS011;54537;47.972;11.662;2023-04-03T04:00:14;19.02;;;6.78;;
66437;SDS011;54537;47.972;11.662;2023-04-03T04:02:41;18.00;;;6.72;;
66437;SDS011;54537;47.972;11.662;2023-04-03T04:05:07;17.90;;;6.13;;
66437;SDS011;54537;47.972;11.662;2023-04-03T04:07:35;18.70;;;6.40;;
66437;SDS011;54537;47.972;11.662;2023-04-03T04:10:02;15.38;;;7.15;;
66437;SDS011;54537;47.972;11.662;2023-04-03T04:12:30;13.82;;;6.50;;
66437;SDS011;54537;47.972;11.662;2023-04-03T04:14:56;14.35;;;6.60;;
66437;SDS011;54537;47.972;11.662;2023-04-03T04:17:23;17.27;;;6.38;;
66437;SDS011;54537;47.972;11.662;2023-04-03T04:19:49;13.27;;;5.65;;
66437;SDS011;54537;47.972;11.662;2023-04-03T04:22:15;14.27;;;5.82;;
66437;SDS011;54537;47.972;11.662;2023-04-03T04:24:43;13.65;;;5.80;;
66437;SDS011;54537;47.972;11.662;2023-04-03T04:27:10;14.85;;;6.30;;
66437;SDS011;54537;47.972;11.662;2023-04-03T04:29:36;15.55;;;6.25;;
66437;SDS011;54537;47.972;11.662;2023-04-03T04:32:03;12.52;;;5.78;;
66437;SDS011;54537;47.972;11.662;2023-04-03T04:34:30;13.90;;;6.28;;
66437;SDS011;54537;47.972;11.662;2023-04-03T04:36:56;13.95;;;6.18;;
66437;SDS011;54537;47.972;11.662;2023-04-03T04:39:23;15.23;;;6.28;;
66437;SDS011;54537;47.972;11.662;2023-04-03T04:41:51;14.80;;;5.95;;
66437;SDS011;54537;47.972;11.662;2023-04-03T04:44:17;14.20;;;5.97;;
66437;SDS011;54537;47.972;11.662;2023-04-03T04:46:43;14.25;;;6.43;;
66437;SDS011;54537;47.972;11.662;2023-04-03T04:49:10;16.35;;;6.18;;
66437;SDS011;54537;47.972;11.662;2023-04-03T04:51:37;14.20;;;6.10;;
66437;SDS011;54537;47.972;11.662;2023-04-03T04:54:03;14.70;;;6.50;;
66437;SDS011;54537;47.972;11.662;2023-04-03T04:56:30;17.83;;;6.43;;
66437;SDS011;54537;47.972;11.662;2023-04-03T04:58:58;12.52;;;5.45;;
66437;SDS011;54537;47.972;11.662;2023-04-03T05:01:25;13.35;;;5.78;;
66437;SDS011;54537;47.972;11.662;2023-04-03T05:03:51;14.20;;;6.18;;
66437;SDS011;54537;47.972;11.662;2023-04-03T05:06:18;13.93;;;5.68;;
66437;SDS011;54537;47.972;11.662;2023-04-03T05:08:46;13.13;;;5.72;;
66437;SDS011;54537;47.972;11.662;2023-04-03T05:11:12;16.65;;;6.07;;
66437;SDS011;54537;47.972;11.662;2023-04-03T05:13:39;15.93;;;6.28;;
66437;SDS011;54537;47.972;11.662;2023-04-03T05:16:07;13.98;;;5.95;;
66437;SDS011;54537;47.972;11.662;2023-04-03T05:18:33;16.45;;;6.00;;
66437;SDS011;54537;47.972;11.662;2023-04-03T05:21:00;13.95;;;5.78;;
66437;SDS011;54537;47.972;11.662;2023-04-03T05:23:26;14.05;;;6.22;;
66437;SDS011;54537;47.972;11.662;2023-04-03T05:25:53;16.33;;;6.45;;
66437;SDS011;54537;47.972;11.662;2023-04-03T05:28:19;16.15;;;6.22;;
66437;SDS011;54537;47.972;11.662;2023-04-03T05:30:52;12.65;;;5.82;;
66437;SDS011;54537;47.972;11.662;2023-04-03T05:33:20;13.23;;;5.55;;
66437;SDS011;54537;47.972;11.662;2023-04-03T05:35:47;13.55;;;5.93;;
66437;SDS011;54537;47.972;11.662;2023-04-03T05:38:13;14.07;;;6.15;;
66437;SDS011;54537;47.972;11.662;2023-04-03T05:40:40;13.27;;;5.97;;
66437;SDS011;54537;47.972;11.662;2023-04-03T05:43:06;12.52;;;5.70;;
66437;SDS011;54537;47.972;11.662;2023-04-03T05:45:33;13.13;;;5.97;;
66437;SDS011;54537;47.972;11.662;2023-04-03T05:47:59;13.50;;;5.68;;
66437;SDS011;54537;47.972;11.662;2023-04-03T05:50:27;12.25;;;5.20;;
66437;SDS011;54537;47.972;11.662;2023-04-03T05:52:54;14.15;;;6.07;;
66437;SDS011;54537;47.972;11.662;2023-04-03T05:55:23;15.32;;;5.93;;
66437;SDS011;54537;47.972;11.662;2023-04-03T05:57:49;12.15;;;6.00;;
66437;SDS011;54537;47.972;11.662;2023-04-03T06:00:16;12.98;;;5.28;;
66437;SDS011;54537;47.972;11.662;2023-04-03T06:02:43;11.57;;;5.22;;
66437;SDS011;54537;47.972;11.662;2023-04-03T06:05:10;12.80;;;5.90;;
66437;SDS011;54537;47.972;11.662;2023-04-03T06:07:39;12.15;;;5.75;;
66437;SDS011;54537;47.972;11.662;2023-04-03T06:10:06;13.73;;;5.70;;
66437;SDS011;54537;47.972;11.662;2023-04-03T06:12:34;11.70;;;5.50;;
66437;SDS011;54537;47.972;11.662;2023-04-03T06:15:00;13.82;;;5.82;;
66437;SDS011;54537;47.972;11.662;2023-04-03T06:17:27;11.20;;;4.63;;
66437;SDS011;54537;47.972;11.662;2023-04-03T06:19:54;14.30;;;5.93;;
66437;SDS011;54537;47.972;11.662;2023-04-03T06:22:23;11.80;;;4.72;;
66437;SDS011;54537;47.972;11.662;2023-04-03T06:24:52;10.63;;;5.03;;
66437;SDS011;54537;47.972;11.662;2023-04-03T06:27:18;10.45;;;5.45;;
66437;SDS011;54537;47.972;11.662;2023-04-03T06:29:45;12.02;;;5.05;;
66437;SDS011;54537;47.972;11.662;2023-04-03T06:32:12;10.73;;;4.90;;
66437;SDS011;54537;47.972;11.662;2023-04-03T06:34:38;10.73;;;5.05;;
66437;SDS011;54537;47.972;11.662;2023-04-03T06:37:05;10.18;;;4.53;;
66437;SDS011;54537;47.972;11.662;2023-04-03T06:39:32;9.95;;;4.60;;
66437;SDS011;54537;47.972;11.662;2023-04-03T06:42:00;9.98;;;4.68;;
66437;SDS011;54537;47.972;11.662;2023-04-03T06:44:26;11.43;;;4.55;;
66437;SDS011;54537;47.972;11.662;2023-04-03T06:46:53;9.65;;;4.50;;
66437;SDS011;54537;47.972;11.662;2023-04-03T06:49:19;11.57;;;4.75;;
66437;SDS011;54537;47.972;11.662;2023-04-03T06:51:46;10.48;;;4.72;;
66437;SDS011;54537;47.972;11.662;2023-04-03T06:54:13;7.90;;;4.18;;
66437;SDS011;54537;47.972;11.662;2023-04-03T06:56:39;8.25;;;4.43;;
66437;SDS011;54537;47.972;11.662;2023-04-03T06:59:09;9.73;;;4.35;;
66437;SDS011;54537;47.972;11.662;2023-04-03T07:01:35;8.57;;;4.60;;
66437;SDS011;54537;47.972;11.662;2023-04-03T07:04:02;9.43;;;4.10;;
66437;SDS011;54537;47.972;11.662;2023-04-03T07:06:29;8.23;;;3.92;;
66437;SDS011;54537;47.972;11.662;2023-04-03T07:08:56;9.18;;;4.15;;
66437;SDS011;54537;47.972;11.662;2023-04-03T07:11:23;9.07;;;4.10;;
66437;SDS011;54537;47.972;11.662;2023-04-03T07:13:50;8.65;;;4.05;;
66437;SDS011;54537;47.972;11.662;2023-04-03T07:16:18;8.32;;;3.90;;
66437;SDS011;54537;47.972;11.662;2023-04-03T07:18:45;8.60;;;4.28;;
66437;SDS011;54537;47.972;11.662;2023-04-03T07:21:12;7.95;;;3.85;;
66437;SDS011;54537;47.972;11.662;2023-04-03T07:23:38;8.38;;;4.00;;
66437;SDS011;54537;47.972;11.662;2023-04-03T07:26:05;8.00;;;3.80;;
66437;SDS011;54537;47.972;11.662;2023-04-03T07:28:33;7.82;;;3.58;;
66437;SDS011;54537;47.972;11.662;2023-04-03T07:31:00;10.07;;;4.50;;
66437;SDS011;54537;47.972;11.662;2023-04-03T07:33:29;7.80;;;3.90;;
66437;SDS011;54537;47.972;11.662;2023-04-03T07:35:56;9.43;;;4.00;;
66437;SDS011;54537;47.972;11.662;2023-04-03T07:38:23;8.23;;;3.70;;
66437;SDS011;54537;47.972;11.662;2023-04-03T07:40:50;6.28;;;3.22;;
66437;SDS011;54537;47.972;11.662;2023-04-03T07:43:18;7.07;;;3.50;;
66437;SDS011;54537;47.972;11.662;2023-04-03T07:45:45;6.93;;;3.42;;
66437;SDS011;54537;47.972;11.662;2023-04-03T07:48:11;7.55;;;3.65;;
66437;SDS011;54537;47.972;11.662;2023-04-03T07:50:40;5.75;;;3.05;;
66437;SDS011;54537;47.972;11.662;2023-04-03T07:53:07;7.25;;;3.30;;
66437;SDS011;54537;47.972;11.662;2023-04-03T07:55:34;8.35;;;3.70;;
66437;SDS011;54537;47.972;11.662;2023-04-03T07:58:05;8.13;;;3.63;;
66437;SDS011;54537;47.972;11.662;2023-04-03T08:00:32;8.70;;;3.78;;
66437;SDS011;54537;47.972;11.662;2023-04-03T08:02:59;8.48;;;3.42;;
66437;SDS011;54537;47.972;11.662;2023-04-03T08:05:25;7.72;;;3.45;;
66437;SDS011;54537;47.972;11.662;2023-04-03T08:07:53;8.68;;;3.58;;
66437;SDS011;54537;47.972;11.662;2023-04-03T08:10:19;7.03;;;3.72;;
66437;SDS011;54537;47.972;11.662;2023-04-03T08:12:46;6.72;;;3.53;;
66437;SDS011;54537;47.972;11.662;2023-04-03T08:15:13;5.85;;;3.15;;
66437;SDS011;54537;47.972;11.662;2023-04-03T08:17:41;6.38;;;3.13;;
66437;SDS011;54537;47.972;11.662;2023-04-03T08:20:07;7.55;;;3.72;;
66437;SDS011;54537;47.972;11.662;2023-04-03T08:22:36;7.75;;;3.72;;
66437;SDS011;54537;47.972;11.662;2023-04-03T08:25:04;6.88;;;3.67;;
66437;SDS011;54537;47.972;11.662;2023-04-03T08:27:31;6.90;;;3.55;;
66437;SDS011;54537;47.972;11.662;2023-04-03T08:29:58;6.95;;;3.53;;
66437;SDS011;54537;47.972;11.662;2023-04-03T08:32:25;6.13;;;3.20;;
66437;SDS011;54537;47.972;11.662;2023-04-03T08:34:52;7.25;;;3.15;;
66437;SDS011;54537;47.972;11.662;2023-04-03T08:37:18;8.65;;;3.03;;
66437;SDS011;54537;47.972;11.662;2023-04-03T08:39:45;7.95;;;3.22;;
66437;SDS011;54537;47.972;11.662;2023-04-03T08:42:16;7.13;;;3.22;;
66437;SDS011;54537;47.972;11.662;2023-04-03T08:44:47;8.27;;;3.33;;
66437;SDS011;54537;47.972;11.662;2023-04-03T08:47:18;6.20;;;3.03;;
66437;SDS011;54537;47.972;11.662;2023-04-03T08:49:49;7.90;;;3.42;;
66437;SDS011;54537;47.972;11.662;2023-04-03T08:52:19;8.00;;;3.50;;
66437;SDS011;54537;47.972;11.662;2023-04-03T08:54:49;6.20;;;3.17;;
66437;SDS011;54537;47.972;11.662;2023-04-03T08:57:19;9.02;;;3.35;;
66437;SDS011;54537;47.972;11.662;2023-04-03T08:59:48;5.55;;;3.25;;
66437;SDS011;54537;47.972;11.662;2023-04-03T09:02:21;6.65;;;2.83;;
66437;SDS011;54537;47.972;11.662;2023-04-03T09:04:51;8.70;;;3.33;;
66437;SDS011;54537;47.972;11.662;2023-04-03T09:07:19;6.53;;;3.17;;
66437;SDS011;54537;47.972;11.662;2023-04-03T09:09:50;7.45;;;3.05;;
66437;SDS011;54537;47.972;11.662;2023-04-03T09:12:20;6.05;;;3.00;;
66437;SDS011;54537;47.972;11.662;2023-04-03T09:14:53;7.82;;;3.60;;
66437;SDS011;54537;47.972;11.662;2023-04-03T09:17:27;7.00;;;3.47;;
66437;SDS011;54537;47.972;11.662;2023-04-03T09:20:02;6.45;;;3.30;;
66437;SDS011;54537;47.972;11.662;2023-04-03T09:22:36;7.63;;;3.53;;
66437;SDS011;54537;47.972;11.662;2023-04-03T09:25:07;8.40;;;3.55;;
66437;SDS011;54537;47.972;11.662;2023-04-03T09:27:39;7.82;;;3.40;;
66437;SDS011;54537;47.972;11.662;2023-04-03T09:30:08;6.70;;;3.15;;
66437;SDS011;54537;47.972;11.662;2023-04-03T09:32:40;6.50;;;3.33;;
66437;SDS011;54537;47.972;11.662;2023-04-03T09:35:13;6.82;;;3.30;;
66437;SDS011;54537;47.972;11.662;2023-04-03T09:37:44;6.85;;;3.33;;
66437;SDS011;54537;47.972;11.662;2023-04-03T09:40:27;6.80;;;3.33;;
66437;SDS011;54537;47.972;11.662;2023-04-03T09:43:19;7.43;;;3.67;;
66437;SDS011;54537;47.972;11.662;2023-04-03T09:45:51;7.55;;;3.50;;
66437;SDS011;54537;47.972;11.662;2023-04-03T09:48:18;8.35;;;3.58;;
66437;SDS011;54537;47.972;11.662;2023-04-03T09:50:53;7.18;;;3.65;;
66437;SDS011;54537;47.972;11.662;2023-04-03T09:53:31;9.43;;;3.35;;
66437;SDS011;54537;47.972;11.662;2023-04-03T09:58:31;7.20;;;3.58;;
66437;SDS011;54537;47.972;11.662;2023-04-03T10:00:59;7.25;;;3.75;;
66437;SDS011;54537;47.972;11.662;2023-04-03T10:03:28;6.53;;;3.25;;
66437;SDS011;54537;47.972;11.662;2023-04-03T10:05:56;6.43;;;3.17;;
66437;SDS011;54537;47.972;11.662;2023-04-03T10:08:24;5.82;;;3.13;;
66437;SDS011;54537;47.972;11.662;2023-04-03T10:11:09;6.88;;;3.80;;
66437;SDS011;54537;47.972;11.662;2023-04-03T10:13:50;8.23;;;3.90;;
66437;SDS011;54537;47.972;11.662;2023-04-03T10:16:18;7.28;;;3.10;;
66437;SDS011;54537;47.972;11.662;2023-04-03T10:18:48;6.50;;;3.33;;
66437;SDS011;54537;47.972;11.662;2023-04-03T10:21:20;6.45;;;3.25;;
66437;SDS011;54537;47.972;11.662;2023-04-03T10:23:58;6.22;;;2.90;;
66437;SDS011;54537;47.972;11.662;2023-04-03T10:26:29;8.95;;;3.28;;
66437;SDS011;54537;47.972;11.662;2023-04-03T10:29:05;5.07;;;2.72;;
66437;SDS011;54537;47.972;11.662;2023-04-03T10:31:37;9.27;;;3.97;;
66437;SDS011;54537;47.972;11.662;2023-04-03T10:34:06;7.13;;;3.72;;
66437;SDS011;54537;47.972;11.662;2023-04-03T10:36:42;6.65;;;3.60;;
66437;SDS011;54537;47.972;11.662;2023-04-03T10:39:17;6.57;;;3.35;;
66437;SDS011;54537;47.972;11.662;2023-04-03T10:41:49;8.25;;;3.85;;
66437;SDS011;54537;47.972;11.662;2023-04-03T10:44:26;10.85;;;4.38;;
66437;SDS011;54537;47.972;11.662;2023-04-03T10:46:59;8.23;;;4.05;;
66437;SDS011;54537;47.972;11.662;2023-04-03T10:49:33;8.90;;;3.42;;
66437;SDS011;54537;47.972;11.662;2023-04-03T10:52:09;7.60;;;3.60;;
66437;SDS011;54537;47.972;11.662;2023-04-03T10:54:41;10.57;;;3.75;;
66437;SDS011;54537;47.972;11.662;2023-04-03T10:57:10;6.60;;;3.42;;
66437;SDS011;54537;47.972;11.662;2023-04-03T10:59:40;7.53;;;3.38;;
66437;SDS011;54537;47.972;11.662;2023-04-03T11:02:11;8.40;;;3.63;;
66437;SDS011;54537;47.972;11.662;2023-04-03T11:04:44;7.43;;;3.05;;
66437;SDS011;54537;47.972;11.662;2023-04-03T11:07:15;6.90;;;3.55;;
66437;SDS011;54537;47.972;11.662;2023-04-03T11:09:44;8.45;;;3.40;;
66437;SDS011;54537;47.972;11.662;2023-04-03T11:12:14;16.02;;;4.68;;
66437;SDS011;54537;47.972;11.662;2023-04-03T11:14:46;6.43;;;3.65;;
66437;SDS011;54537;47.972;11.662;2023-04-03T11:17:15;15.30;;;4.82;;
66437;SDS011;54537;47.972;11.662;2023-04-03T11:19:49;18.83;;;5.93;;
66437;SDS011;54537;47.972;11.662;2023-04-03T11:22:22;5.57;;;2.63;;
66437;SDS011;54537;47.972;11.662;2023-04-03T11:24:54;5.00;;;2.58;;
66437;SDS011;54537;47.972;11.662;2023-04-03T11:27:25;5.32;;;2.42;;
66437;SDS011;54537;47.972;11.662;2023-04-03T11:29:57;4.15;;;2.25;;
66437;SDS011;54537;47.972;11.662;2023-04-03T11:32:32;3.95;;;2.25;;
66437;SDS011;54537;47.972;11.662;2023-04-03T11:35:09;3.30;;;1.67;;
66437;SDS011;54537;47.972;11.662;2023-04-03T11:37:38;4.95;;;2.10;;
66437;SDS011;54537;47.972;11.662;2023-04-03T11:40:06;4.47;;;2.40;;
66437;SDS011;54537;47.972;11.662;2023-04-03T11:42:37;4.60;;;2.65;;
66437;SDS011;54537;47.972;11.662;2023-04-03T11:45:16;5.15;;;2.40;;
66437;SDS011;54537;47.972;11.662;2023-04-03T11:47:57;4.25;;;2.40;;
66437;SDS011;54537;47.972;11.662;2023-04-03T11:50:31;5.35;;;2.35;;
66437;SDS011;54537;47.972;11.662;2023-04-03T11:55:54;5.50;;;2.80;;
66437;SDS011;54537;47.972;11.662;2023-04-03T11:58:22;5.93;;;3.08;;
66437;SDS011;54537;47.972;11.662;2023-04-03T12:09:25;10.55;;;3.85;;
66437;SDS011;54537;47.972;11.662;2023-04-03T12:11:56;7.30;;;3.42;;
66437;SDS011;54537;47.972;11.662;2023-04-03T12:14:24;6.85;;;3.65;;
66437;SDS011;54537;47.972;11.662;2023-04-03T12:16:53;7.88;;;3.95;;
66437;SDS011;54537;47.972;11.662;2023-04-03T12:19:35;6.30;;;3.28;;
66437;SDS011;54537;47.972;11.662;2023-04-03T12:22:07;6.18;;;3.22;;
66437;SDS011;54537;47.972;11.662;2023-04-03T12:24:37;6.70;;;3.47;;
66437;SDS011;54537;47.972;11.662;2023-04-03T12:27:09;6.38;;;3.47;;
66437;SDS011;54537;47.972;11.662;2023-04-03T12:29:43;8.63;;;3.30;;
66437;SDS011;54537;47.972;11.662;2023-04-03T12:32:17;6.95;;;3.10;;
66437;SDS011;54537;47.972;11.662;2023-04-03T12:34:55;8.45;;;3.42;;
66437;SDS011;54537;47.972;11.662;2023-04-03T12:37:37;9.65;;;3.40;;
66437;SDS011;54537;47.972;11.662;2023-04-03T12:40:21;6.30;;;3.50;;
66437;SDS011;54537;47.972;11.662;2023-04-03T12:45:56;7.03;;;3.50;;
66437;SDS011;54537;47.972;11.662;2023-04-03T12:48:27;6.72;;;3.35;;
66437;SDS011;54537;47.972;11.662;2023-04-03T12:50:55;7.95;;;3.60;;
66437;SDS011;54537;47.972;11.662;2023-04-03T12:53:24;5.68;;;3.20;;
66437;SDS011;54537;47.972;11.662;2023-04-03T12:55:53;25.05;;;7.75;;
66437;SDS011;54537;47.972;11.662;2023-04-03T12:58:21;20.90;;;7.15;;
66437;SDS011;54537;47.972;11.662;2023-04-03T13:00:58;11.93;;;4.95;;
66437;SDS011;54537;47.972;11.662;2023-04-03T13:03:28;9.95;;;3.60;;
66437;SDS011;54537;47.972;11.662;2023-04-03T13:05:55;8.90;;;3.55;;
66437;SDS011;54537;47.972;11.662;2023-04-03T13:08:25;7.05;;;3.53;;
66437;SDS011;54537;47.972;11.662;2023-04-03T13:10:53;6.32;;;3.13;;
66437;SDS011;54537;47.972;11.662;2023-04-03T13:13:22;8.50;;;3.45;;
66437;SDS011;54537;47.972;11.662;2023-04-03T13:15:49;8.10;;;3.63;;
66437;SDS011;54537;47.972;11.662;2023-04-03T13:18:21;7.80;;;3.55;;
66437;SDS011;54537;47.972;11.662;2023-04-03T13:20:55;7.80;;;3.75;;
66437;SDS011;54537;47.972;11.662;2023-04-03T13:23:25;6.88;;;3.67;;
66437;SDS011;54537;47.972;11.662;2023-04-03T13:25:52;7.97;;;3.70;;
66437;SDS011;54537;47.972;11.662;2023-04-03T13:28:20;8.07;;;3.28;;
66437;SDS011;54537;47.972;11.662;2023-04-03T13:30:56;8.98;;;3.45;;
66437;SDS011;54537;47.972;11.662;2023-04-03T13:33:28;6.78;;;3.28;;
66437;SDS011;54537;47.972;11.662;2023-04-03T13:35:58;6.32;;;3.22;;
66437;SDS011;54537;47.972;11.662;2023-04-03T13:38:29;8.98;;;3.30;;
66437;SDS011;54537;47.972;11.662;2023-04-03T13:40:59;6.22;;;3.10;;
66437;SDS011;54537;47.972;11.662;2023-04-03T13:43:28;9.05;;;3.13;;
66437;SDS011;54537;47.972;11.662;2023-04-03T13:45:58;5.43;;;2.78;;
66437;SDS011;54537;47.972;11.662;2023-04-03T13:48:34;6.72;;;3.50;;
66437;SDS011;54537;47.972;11.662;2023-04-03T13:51:06;6.70;;;3.03;;
66437;SDS011;54537;47.972;11.662;2023-04-03T13:53:44;7.32;;;2.90;;
66437;SDS011;54537;47.972;11.662;2023-04-03T13:56:16;9.73;;;3.45;;
66437;SDS011;54537;47.972;11.662;2023-04-03T13:58:57;10.40;;;3.80;;
66437;SDS011;54537;47.972;11.662;2023-04-03T14:01:33;6.95;;;2.85;;
66437;SDS011;54537;47.972;11.662;2023-04-03T14:04:10;10.63;;;3.47;;
66437;SDS011;54537;47.972;11.662;2023-04-03T14:06:45;4.70;;;2.65;;
66437;SDS011;54537;47.972;11.662;2023-04-03T14:09:12;6.28;;;3.20;;
66437;SDS011;54537;47.972;11.662;2023-04-03T14:11:39;6.85;;;2.90;;
66437;SDS011;54537;47.972;11.662;2023-04-03T14:14:09;6.60;;;2.90;;
66437;SDS011;54537;47.972;11.662;2023-04-03T14:16:39;5.93;;;2.60;;
66437;SDS011;54537;47.972;11.662;2023-04-03T14:19:07;7.93;;;2.60;;
66437;SDS011;54537;47.972;11.662;2023-04-03T14:21:44;5.90;;;2.55;;
66437;SDS011;54537;47.972;11.662;2023-04-03T14:24:11;6.32;;;2.58;;
66437;SDS011;54537;47.972;11.662;2023-04-03T14:26:38;9.18;;;2.83;;
66437;SDS011;54537;47.972;11.662;2023-04-03T14:29:04;4.30;;;2.45;;
66437;SDS011;54537;47.972;11.662;2023-04-03T14:31:31;17.17;;;5.30;;
66437;SDS011;54537;47.972;11.662;2023-04-03T14:33:57;17.13;;;6.15;;
66437;SDS011;54537;47.972;11.662;2023-04-03T14:36:24;6.80;;;2.75;;
66437;SDS011;54537;47.972;11.662;2023-04-03T14:38:53;5.00;;;2.22;;
66437;SDS011;54537;47.972;11.662;2023-04-03T14:41:21;4.50;;;1.75;;
66437;SDS011;54537;47.972;11.662;2023-04-03T14:43:49;4.25;;;1.92;;
66437;SDS011;54537;47.972;11.662;2023-04-03T14:46:16;3.75;;;1.60;;
66437;SDS011;54537;47.972;11.662;2023-04-03T14:48:44;4.72;;;1.70;;
66437;SDS011;54537;47.972;11.662;2023-04-03T14:51:12;3.53;;;1.90;;
66437;SDS011;54537;47.972;11.662;2023-04-03T14:53:39;4.72;;;1.70;;
66437;SDS011;54537;47.972;11.662;2023-04-03T14:56:11;3.35;;;1.75;;
66437;SDS011;54537;47.972;11.662;2023-04-03T14:58:39;4.22;;;1.63;;